The Plains, Ohio
Current Conditions -  °F | °C
As of 4:35 PM on Thursday 27 Nov 2014 (Local Time) from KUNI Reporting Station
Overcast Overcast  
Wind Chill: 24°   Ceiling: 4600
Heat Index: 32°   Visibility: 10mi
Dew Point: 24°   Wind: 9mph
Humidity: 75%   Direction: 270°W
Pressure: 30.25"   Gusts: NA
Location:  39.37°N, 82.13°W
Report Text: KUNI 272135Z AUTO 27008KT 10SM SCT027 SCT032 OVC046 00/M04 A3025 RMK AO2 T10021042
Loading
Personal Weather Stations






























Interactive Weather Map New forecast layout! Learn more

10-Day Weather Forecast

Advertisements
Track Severe Weather on mobile